sensor_id;sensor_type;location;lat;lon;timestamp;P1;durP1;ratioP1;P2;durP2;ratioP2
71665;SDS011;59503;53.486;10.196;2023-05-10T00:02:16;8.73;;;3.07;;
71665;SDS011;59503;53.486;10.196;2023-05-10T00:04:42;7.13;;;3.03;;
71665;SDS011;59503;53.486;10.196;2023-05-10T00:07:07;6.67;;;3.30;;
71665;SDS011;59503;53.486;10.196;2023-05-10T00:09:33;5.40;;;3.50;;
71665;SDS011;59503;53.486;10.196;2023-05-10T00:11:58;4.73;;;2.93;;
71665;SDS011;59503;53.486;10.196;2023-05-10T00:14:23;8.60;;;3.20;;
71665;SDS011;59503;53.486;10.196;2023-05-10T00:16:49;6.07;;;3.27;;
71665;SDS011;59503;53.486;10.196;2023-05-10T00:19:14;10.83;;;3.50;;
71665;SDS011;59503;53.486;10.196;2023-05-10T00:21:39;6.17;;;3.70;;
71665;SDS011;59503;53.486;10.196;2023-05-10T00:24:05;6.22;;;3.05;;
71665;SDS011;59503;53.486;10.196;2023-05-10T00:26:30;5.67;;;3.50;;
71665;SDS011;59503;53.486;10.196;2023-05-10T00:28:55;6.13;;;2.90;;
71665;SDS011;59503;53.486;10.196;2023-05-10T00:31:21;6.72;;;3.58;;
71665;SDS011;59503;53.486;10.196;2023-05-10T00:33:47;7.03;;;3.23;;
71665;SDS011;59503;53.486;10.196;2023-05-10T00:36:12;5.47;;;3.13;;
71665;SDS011;59503;53.486;10.196;2023-05-10T00:38:37;5.77;;;3.13;;
71665;SDS011;59503;53.486;10.196;2023-05-10T00:41:03;7.13;;;3.47;;
71665;SDS011;59503;53.486;10.196;2023-05-10T00:43:28;8.05;;;3.15;;
71665;SDS011;59503;53.486;10.196;2023-05-10T00:45:54;8.13;;;3.37;;
71665;SDS011;59503;53.486;10.196;2023-05-10T00:48:19;6.27;;;2.97;;
71665;SDS011;59503;53.486;10.196;2023-05-10T00:50:45;4.47;;;3.22;;
71665;SDS011;59503;53.486;10.196;2023-05-10T00:53:10;8.17;;;4.00;;
71665;SDS011;59503;53.486;10.196;2023-05-10T00:55:36;8.73;;;3.50;;
71665;SDS011;59503;53.486;10.196;2023-05-10T00:58:02;6.72;;;3.25;;
71665;SDS011;59503;53.486;10.196;2023-05-10T01:00:28;6.73;;;3.50;;
71665;SDS011;59503;53.486;10.196;2023-05-10T01:02:54;4.82;;;3.08;;
71665;SDS011;59503;53.486;10.196;2023-05-10T01:05:19;7.20;;;3.13;;
71665;SDS011;59503;53.486;10.196;2023-05-10T01:07:45;9.03;;;3.37;;
71665;SDS011;59503;53.486;10.196;2023-05-10T01:10:10;4.90;;;3.43;;
71665;SDS011;59503;53.486;10.196;2023-05-10T01:12:37;5.17;;;3.30;;
71665;SDS011;59503;53.486;10.196;2023-05-10T01:15:06;4.75;;;3.47;;
71665;SDS011;59503;53.486;10.196;2023-05-10T01:17:33;6.93;;;3.50;;
71665;SDS011;59503;53.486;10.196;2023-05-10T01:20:02;8.25;;;3.30;;
71665;SDS011;59503;53.486;10.196;2023-05-10T01:25:32;4.88;;;3.63;;
71665;SDS011;59503;53.486;10.196;2023-05-10T01:30:35;8.03;;;3.47;;
71665;SDS011;59503;53.486;10.196;2023-05-10T01:33:26;7.65;;;3.03;;
71665;SDS011;59503;53.486;10.196;2023-05-10T01:38:37;6.10;;;3.42;;
71665;SDS011;59503;53.486;10.196;2023-05-10T01:43:41;8.20;;;4.00;;
71665;SDS011;59503;53.486;10.196;2023-05-10T01:46:16;6.25;;;3.72;;
71665;SDS011;59503;53.486;10.196;2023-05-10T01:48:48;11.77;;;4.10;;
71665;SDS011;59503;53.486;10.196;2023-05-10T01:51:19;7.43;;;3.40;;
71665;SDS011;59503;53.486;10.196;2023-05-10T01:53:48;6.55;;;3.60;;
71665;SDS011;59503;53.486;10.196;2023-05-10T01:56:16;8.83;;;3.33;;
71665;SDS011;59503;53.486;10.196;2023-05-10T01:58:46;6.80;;;3.70;;
71665;SDS011;59503;53.486;10.196;2023-05-10T02:01:13;5.75;;;3.40;;
71665;SDS011;59503;53.486;10.196;2023-05-10T02:03:40;6.38;;;3.40;;
71665;SDS011;59503;53.486;10.196;2023-05-10T02:06:07;6.35;;;3.50;;
71665;SDS011;59503;53.486;10.196;2023-05-10T02:08:35;6.60;;;3.13;;
71665;SDS011;59503;53.486;10.196;2023-05-10T02:11:02;9.43;;;3.72;;
71665;SDS011;59503;53.486;10.196;2023-05-10T02:13:29;5.28;;;3.33;;
71665;SDS011;59503;53.486;10.196;2023-05-10T02:15:58;6.57;;;3.40;;
71665;SDS011;59503;53.486;10.196;2023-05-10T02:18:24;6.82;;;3.75;;
71665;SDS011;59503;53.486;10.196;2023-05-10T02:20:52;5.40;;;3.80;;
71665;SDS011;59503;53.486;10.196;2023-05-10T02:23:20;5.38;;;3.45;;
71665;SDS011;59503;53.486;10.196;2023-05-10T02:25:46;7.10;;;3.72;;
71665;SDS011;59503;53.486;10.196;2023-05-10T02:28:13;8.02;;;3.97;;
71665;SDS011;59503;53.486;10.196;2023-05-10T02:30:40;12.23;;;4.20;;
71665;SDS011;59503;53.486;10.196;2023-05-10T02:33:06;7.50;;;3.73;;
71665;SDS011;59503;53.486;10.196;2023-05-10T02:35:32;5.80;;;3.47;;
71665;SDS011;59503;53.486;10.196;2023-05-10T02:37:59;6.22;;;4.00;;
71665;SDS011;59503;53.486;10.196;2023-05-10T02:40:26;6.53;;;3.75;;
71665;SDS011;59503;53.486;10.196;2023-05-10T02:42:54;5.75;;;3.53;;
71665;SDS011;59503;53.486;10.196;2023-05-10T02:45:22;9.37;;;4.07;;
71665;SDS011;59503;53.486;10.196;2023-05-10T02:47:51;6.53;;;3.60;;
71665;SDS011;59503;53.486;10.196;2023-05-10T02:50:17;6.35;;;3.58;;
71665;SDS011;59503;53.486;10.196;2023-05-10T02:52:44;8.38;;;3.95;;
71665;SDS011;59503;53.486;10.196;2023-05-10T02:55:12;9.35;;;3.60;;
71665;SDS011;59503;53.486;10.196;2023-05-10T02:57:41;7.27;;;3.83;;
71665;SDS011;59503;53.486;10.196;2023-05-10T03:00:11;6.82;;;3.65;;
71665;SDS011;59503;53.486;10.196;2023-05-10T03:02:36;5.60;;;3.60;;
71665;SDS011;59503;53.486;10.196;2023-05-10T03:05:02;6.27;;;3.80;;
71665;SDS011;59503;53.486;10.196;2023-05-10T03:07:28;7.35;;;3.40;;
71665;SDS011;59503;53.486;10.196;2023-05-10T03:09:54;9.93;;;3.53;;
71665;SDS011;59503;53.486;10.196;2023-05-10T03:15:37;6.20;;;3.30;;
71665;SDS011;59503;53.486;10.196;2023-05-10T03:18:16;5.88;;;3.42;;
71665;SDS011;59503;53.486;10.196;2023-05-10T03:20:50;8.35;;;3.85;;
71665;SDS011;59503;53.486;10.196;2023-05-10T03:25:52;6.33;;;3.60;;
71665;SDS011;59503;53.486;10.196;2023-05-10T03:28:18;7.28;;;3.50;;
71665;SDS011;59503;53.486;10.196;2023-05-10T03:30:45;7.30;;;3.72;;
71665;SDS011;59503;53.486;10.196;2023-05-10T03:33:11;7.50;;;3.80;;
71665;SDS011;59503;53.486;10.196;2023-05-10T03:35:37;10.13;;;3.90;;
71665;SDS011;59503;53.486;10.196;2023-05-10T03:38:03;7.07;;;3.80;;
71665;SDS011;59503;53.486;10.196;2023-05-10T03:40:28;8.95;;;3.78;;
71665;SDS011;59503;53.486;10.196;2023-05-10T03:43:00;5.27;;;3.57;;
71665;SDS011;59503;53.486;10.196;2023-05-10T03:45:25;8.77;;;3.63;;
71665;SDS011;59503;53.486;10.196;2023-05-10T03:47:51;5.65;;;3.88;;
71665;SDS011;59503;53.486;10.196;2023-05-10T03:50:16;6.93;;;3.83;;
71665;SDS011;59503;53.486;10.196;2023-05-10T03:52:43;5.30;;;3.55;;
71665;SDS011;59503;53.486;10.196;2023-05-10T03:55:09;5.47;;;3.35;;
71665;SDS011;59503;53.486;10.196;2023-05-10T03:57:34;6.37;;;4.03;;
71665;SDS011;59503;53.486;10.196;2023-05-10T04:00:00;7.90;;;4.10;;
71665;SDS011;59503;53.486;10.196;2023-05-10T04:02:25;10.60;;;4.10;;
71665;SDS011;59503;53.486;10.196;2023-05-10T04:04:51;11.93;;;3.97;;
71665;SDS011;59503;53.486;10.196;2023-05-10T04:07:16;6.43;;;4.00;;
71665;SDS011;59503;53.486;10.196;2023-05-10T04:09:41;6.17;;;3.70;;
71665;SDS011;59503;53.486;10.196;2023-05-10T04:12:07;7.40;;;4.37;;
71665;SDS011;59503;53.486;10.196;2023-05-10T04:14:32;9.82;;;4.05;;
71665;SDS011;59503;53.486;10.196;2023-05-10T04:16:58;5.77;;;3.80;;
71665;SDS011;59503;53.486;10.196;2023-05-10T04:19:23;10.00;;;3.97;;
71665;SDS011;59503;53.486;10.196;2023-05-10T04:21:48;13.43;;;3.80;;
71665;SDS011;59503;53.486;10.196;2023-05-10T04:24:14;7.33;;;3.90;;
71665;SDS011;59503;53.486;10.196;2023-05-10T04:26:39;5.95;;;3.78;;
71665;SDS011;59503;53.486;10.196;2023-05-10T04:29:05;5.97;;;4.13;;
71665;SDS011;59503;53.486;10.196;2023-05-10T04:31:30;6.17;;;4.17;;
71665;SDS011;59503;53.486;10.196;2023-05-10T04:33:55;10.90;;;4.13;;
71665;SDS011;59503;53.486;10.196;2023-05-10T04:36:20;6.83;;;3.90;;
71665;SDS011;59503;53.486;10.196;2023-05-10T04:38:46;5.73;;;4.13;;
71665;SDS011;59503;53.486;10.196;2023-05-10T04:41:11;6.88;;;4.15;;
71665;SDS011;59503;53.486;10.196;2023-05-10T04:43:37;7.73;;;4.33;;
71665;SDS011;59503;53.486;10.196;2023-05-10T04:46:03;6.20;;;4.22;;
71665;SDS011;59503;53.486;10.196;2023-05-10T04:48:29;10.93;;;4.20;;
71665;SDS011;59503;53.486;10.196;2023-05-10T04:50:54;6.55;;;3.80;;
71665;SDS011;59503;53.486;10.196;2023-05-10T04:53:20;5.47;;;3.73;;
71665;SDS011;59503;53.486;10.196;2023-05-10T04:55:45;8.10;;;4.13;;
71665;SDS011;59503;53.486;10.196;2023-05-10T04:58:11;7.15;;;4.03;;
71665;SDS011;59503;53.486;10.196;2023-05-10T05:00:36;7.27;;;3.90;;
71665;SDS011;59503;53.486;10.196;2023-05-10T05:03:02;8.90;;;4.00;;
71665;SDS011;59503;53.486;10.196;2023-05-10T05:05:27;5.77;;;3.93;;
71665;SDS011;59503;53.486;10.196;2023-05-10T05:07:52;9.53;;;4.50;;
71665;SDS011;59503;53.486;10.196;2023-05-10T05:10:18;7.43;;;3.50;;
71665;SDS011;59503;53.486;10.196;2023-05-10T05:12:43;7.37;;;3.57;;
71665;SDS011;59503;53.486;10.196;2023-05-10T05:15:08;5.90;;;3.70;;
71665;SDS011;59503;53.486;10.196;2023-05-10T05:17:34;6.90;;;4.30;;
71665;SDS011;59503;53.486;10.196;2023-05-10T05:20:00;9.63;;;3.67;;
71665;SDS011;59503;53.486;10.196;2023-05-10T05:22:25;7.10;;;3.97;;
71665;SDS011;59503;53.486;10.196;2023-05-10T05:24:56;6.22;;;3.80;;
71665;SDS011;59503;53.486;10.196;2023-05-10T05:27:23;7.28;;;3.65;;
71665;SDS011;59503;53.486;10.196;2023-05-10T05:29:52;8.10;;;3.60;;
71665;SDS011;59503;53.486;10.196;2023-05-10T05:32:20;9.00;;;4.37;;
71665;SDS011;59503;53.486;10.196;2023-05-10T05:34:46;5.28;;;3.92;;
71665;SDS011;59503;53.486;10.196;2023-05-10T05:37:12;6.40;;;4.00;;
71665;SDS011;59503;53.486;10.196;2023-05-10T05:39:39;5.80;;;3.40;;
71665;SDS011;59503;53.486;10.196;2023-05-10T05:42:04;3.97;;;3.33;;
71665;SDS011;59503;53.486;10.196;2023-05-10T05:44:30;6.90;;;3.30;;
71665;SDS011;59503;53.486;10.196;2023-05-10T05:46:55;6.90;;;3.57;;
71665;SDS011;59503;53.486;10.196;2023-05-10T05:49:20;8.23;;;3.93;;
71665;SDS011;59503;53.486;10.196;2023-05-10T05:51:46;5.30;;;3.97;;
71665;SDS011;59503;53.486;10.196;2023-05-10T05:54:12;5.47;;;3.78;;
71665;SDS011;59503;53.486;10.196;2023-05-10T05:56:37;5.43;;;3.60;;
71665;SDS011;59503;53.486;10.196;2023-05-10T05:59:02;6.20;;;3.80;;
71665;SDS011;59503;53.486;10.196;2023-05-10T06:01:28;6.25;;;3.65;;
71665;SDS011;59503;53.486;10.196;2023-05-10T06:03:53;6.60;;;3.80;;
71665;SDS011;59503;53.486;10.196;2023-05-10T06:06:19;6.30;;;3.57;;
71665;SDS011;59503;53.486;10.196;2023-05-10T06:08:44;4.80;;;3.47;;
71665;SDS011;59503;53.486;10.196;2023-05-10T06:11:09;8.13;;;3.65;;
71665;SDS011;59503;53.486;10.196;2023-05-10T06:13:35;7.83;;;3.63;;
71665;SDS011;59503;53.486;10.196;2023-05-10T06:16:00;6.70;;;3.90;;
71665;SDS011;59503;53.486;10.196;2023-05-10T06:18:27;6.43;;;4.03;;
71665;SDS011;59503;53.486;10.196;2023-05-10T06:20:52;6.47;;;3.70;;
71665;SDS011;59503;53.486;10.196;2023-05-10T06:23:17;6.53;;;3.30;;
71665;SDS011;59503;53.486;10.196;2023-05-10T06:25:43;4.67;;;3.70;;
71665;SDS011;59503;53.486;10.196;2023-05-10T06:28:08;6.90;;;4.00;;
71665;SDS011;59503;53.486;10.196;2023-05-10T06:30:35;5.38;;;4.20;;
71665;SDS011;59503;53.486;10.196;2023-05-10T06:33:01;6.78;;;3.65;;
71665;SDS011;59503;53.486;10.196;2023-05-10T06:35:26;7.50;;;3.40;;
71665;SDS011;59503;53.486;10.196;2023-05-10T06:37:53;5.25;;;3.83;;
71665;SDS011;59503;53.486;10.196;2023-05-10T06:40:18;10.00;;;3.53;;
71665;SDS011;59503;53.486;10.196;2023-05-10T06:42:44;5.60;;;3.57;;
71665;SDS011;59503;53.486;10.196;2023-05-10T06:45:12;5.57;;;3.58;;
71665;SDS011;59503;53.486;10.196;2023-05-10T06:47:38;5.63;;;3.90;;
71665;SDS011;59503;53.486;10.196;2023-05-10T06:50:03;4.80;;;3.20;;
71665;SDS011;59503;53.486;10.196;2023-05-10T06:52:29;4.93;;;3.80;;
71665;SDS011;59503;53.486;10.196;2023-05-10T06:54:55;4.97;;;3.77;;
71665;SDS011;59503;53.486;10.196;2023-05-10T06:57:20;6.80;;;3.53;;
71665;SDS011;59503;53.486;10.196;2023-05-10T06:59:46;8.48;;;3.80;;
71665;SDS011;59503;53.486;10.196;2023-05-10T07:02:11;6.23;;;3.77;;
71665;SDS011;59503;53.486;10.196;2023-05-10T07:04:37;5.23;;;3.80;;
71665;SDS011;59503;53.486;10.196;2023-05-10T07:07:02;7.70;;;3.87;;
71665;SDS011;59503;53.486;10.196;2023-05-10T07:09:27;8.20;;;3.57;;
71665;SDS011;59503;53.486;10.196;2023-05-10T07:11:53;8.07;;;3.70;;
71665;SDS011;59503;53.486;10.196;2023-05-10T07:14:18;5.88;;;3.53;;
71665;SDS011;59503;53.486;10.196;2023-05-10T07:16:43;6.43;;;3.77;;
71665;SDS011;59503;53.486;10.196;2023-05-10T07:19:09;6.07;;;3.43;;
71665;SDS011;59503;53.486;10.196;2023-05-10T07:21:34;9.37;;;3.50;;
71665;SDS011;59503;53.486;10.196;2023-05-10T07:24:00;4.70;;;3.30;;
71665;SDS011;59503;53.486;10.196;2023-05-10T07:26:25;10.50;;;3.60;;
71665;SDS011;59503;53.486;10.196;2023-05-10T07:28:51;5.57;;;3.73;;
71665;SDS011;59503;53.486;10.196;2023-05-10T07:31:16;4.13;;;3.50;;
71665;SDS011;59503;53.486;10.196;2023-05-10T07:33:41;7.80;;;3.70;;
71665;SDS011;59503;53.486;10.196;2023-05-10T07:36:07;7.37;;;3.73;;
71665;SDS011;59503;53.486;10.196;2023-05-10T07:38:32;8.33;;;3.90;;
71665;SDS011;59503;53.486;10.196;2023-05-10T07:40:57;10.07;;;3.97;;
71665;SDS011;59503;53.486;10.196;2023-05-10T07:43:23;7.70;;;3.80;;
71665;SDS011;59503;53.486;10.196;2023-05-10T07:45:48;11.83;;;3.77;;
71665;SDS011;59503;53.486;10.196;2023-05-10T07:48:13;10.13;;;3.50;;
71665;SDS011;59503;53.486;10.196;2023-05-10T07:50:38;7.00;;;3.33;;
71665;SDS011;59503;53.486;10.196;2023-05-10T07:53:04;7.43;;;3.80;;
71665;SDS011;59503;53.486;10.196;2023-05-10T07:55:29;7.50;;;2.93;;
71665;SDS011;59503;53.486;10.196;2023-05-10T07:57:54;5.97;;;3.70;;
71665;SDS011;59503;53.486;10.196;2023-05-10T08:00:20;5.00;;;3.73;;
71665;SDS011;59503;53.486;10.196;2023-05-10T08:02:46;7.40;;;4.10;;
71665;SDS011;59503;53.486;10.196;2023-05-10T08:05:11;6.00;;;4.07;;
71665;SDS011;59503;53.486;10.196;2023-05-10T08:07:37;6.57;;;3.90;;
71665;SDS011;59503;53.486;10.196;2023-05-10T08:10:02;6.60;;;3.67;;
71665;SDS011;59503;53.486;10.196;2023-05-10T08:12:28;13.43;;;3.70;;
71665;SDS011;59503;53.486;10.196;2023-05-10T08:14:53;5.50;;;3.77;;
71665;SDS011;59503;53.486;10.196;2023-05-10T08:17:19;7.20;;;3.23;;
71665;SDS011;59503;53.486;10.196;2023-05-10T08:19:44;8.20;;;3.80;;
71665;SDS011;59503;53.486;10.196;2023-05-10T08:22:09;14.97;;;3.30;;
71665;SDS011;59503;53.486;10.196;2023-05-10T08:24:35;6.47;;;4.10;;
71665;SDS011;59503;53.486;10.196;2023-05-10T08:27:03;9.55;;;3.72;;
71665;SDS011;59503;53.486;10.196;2023-05-10T08:29:29;5.07;;;3.63;;
71665;SDS011;59503;53.486;10.196;2023-05-10T08:31:55;7.87;;;4.00;;
71665;SDS011;59503;53.486;10.196;2023-05-10T08:34:20;9.23;;;3.77;;
71665;SDS011;59503;53.486;10.196;2023-05-10T08:36:45;6.90;;;3.97;;
71665;SDS011;59503;53.486;10.196;2023-05-10T08:39:10;8.27;;;3.53;;
71665;SDS011;59503;53.486;10.196;2023-05-10T08:41:36;6.20;;;3.65;;
71665;SDS011;59503;53.486;10.196;2023-05-10T08:44:04;8.15;;;3.40;;
71665;SDS011;59503;53.486;10.196;2023-05-10T08:46:33;4.13;;;3.57;;
71665;SDS011;59503;53.486;10.196;2023-05-10T08:49:03;10.68;;;3.70;;
71665;SDS011;59503;53.486;10.196;2023-05-10T08:51:29;10.70;;;4.25;;
71665;SDS011;59503;53.486;10.196;2023-05-10T08:53:58;11.17;;;3.63;;
71665;SDS011;59503;53.486;10.196;2023-05-10T08:56:24;4.43;;;3.40;;
71665;SDS011;59503;53.486;10.196;2023-05-10T08:58:50;13.55;;;3.85;;
71665;SDS011;59503;53.486;10.196;2023-05-10T09:01:15;11.37;;;4.10;;
71665;SDS011;59503;53.486;10.196;2023-05-10T09:03:41;6.55;;;3.80;;
71665;SDS011;59503;53.486;10.196;2023-05-10T09:06:08;12.60;;;3.97;;
71665;SDS011;59503;53.486;10.196;2023-05-10T09:08:33;14.90;;;5.57;;
71665;SDS011;59503;53.486;10.196;2023-05-10T09:10:59;6.32;;;3.50;;
71665;SDS011;59503;53.486;10.196;2023-05-10T09:13:26;10.43;;;3.97;;
71665;SDS011;59503;53.486;10.196;2023-05-10T09:15:51;10.48;;;4.05;;
71665;SDS011;59503;53.486;10.196;2023-05-10T09:18:18;7.65;;;4.00;;
71665;SDS011;59503;53.486;10.196;2023-05-10T09:20:43;14.23;;;4.30;;
71665;SDS011;59503;53.486;10.196;2023-05-10T09:23:08;6.80;;;4.00;;
71665;SDS011;59503;53.486;10.196;2023-05-10T09:25:34;11.10;;;4.30;;
71665;SDS011;59503;53.486;10.196;2023-05-10T09:27:59;7.23;;;4.00;;
71665;SDS011;59503;53.486;10.196;2023-05-10T09:30:28;6.67;;;3.53;;
71665;SDS011;59503;53.486;10.196;2023-05-10T09:32:55;10.68;;;4.63;;
71665;SDS011;59503;53.486;10.196;2023-05-10T09:35:21;6.57;;;4.07;;
71665;SDS011;59503;53.486;10.196;2023-05-10T09:37:49;6.53;;;4.10;;
71665;SDS011;59503;53.486;10.196;2023-05-10T09:40:19;8.37;;;3.67;;
71665;SDS011;59503;53.486;10.196;2023-05-10T09:45:22;7.53;;;3.97;;
71665;SDS011;59503;53.486;10.196;2023-05-10T09:47:49;8.30;;;4.13;;
71665;SDS011;59503;53.486;10.196;2023-05-10T09:50:14;5.20;;;3.87;;
71665;SDS011;59503;53.486;10.196;2023-05-10T09:52:52;11.23;;;3.70;;
71665;SDS011;59503;53.486;10.196;2023-05-10T09:58:02;6.85;;;3.60;;
71665;SDS011;59503;53.486;10.196;2023-05-10T10:00:28;9.47;;;3.70;;
71665;SDS011;59503;53.486;10.196;2023-05-10T10:02:59;8.50;;;4.32;;
71665;SDS011;59503;53.486;10.196;2023-05-10T10:05:27;8.83;;;4.73;;
71665;SDS011;59503;53.486;10.196;2023-05-10T10:07:53;9.07;;;4.05;;
71665;SDS011;59503;53.486;10.196;2023-05-10T10:10:20;6.22;;;4.47;;
71665;SDS011;59503;53.486;10.196;2023-05-10T10:12:45;11.40;;;4.67;;
71665;SDS011;59503;53.486;10.196;2023-05-10T10:15:11;10.45;;;5.20;;
71665;SDS011;59503;53.486;10.196;2023-05-10T10:17:36;9.73;;;5.30;;
71665;SDS011;59503;53.486;10.196;2023-05-10T10:20:05;15.05;;;5.80;;
71665;SDS011;59503;53.486;10.196;2023-05-10T10:22:31;11.03;;;5.70;;
71665;SDS011;59503;53.486;10.196;2023-05-10T10:24:56;8.37;;;6.07;;
71665;SDS011;59503;53.486;10.196;2023-05-10T10:27:32;9.20;;;6.00;;
71665;SDS011;59503;53.486;10.196;2023-05-10T10:31:11;9.80;;;6.53;;
71665;SDS011;59503;53.486;10.196;2023-05-10T10:33:23;8.23;;;6.63;;
71665;SDS011;59503;53.486;10.196;2023-05-10T10:41:26;10.60;;;6.70;;
71665;SDS011;59503;53.486;10.196;2023-05-10T10:47:10;9.60;;;6.77;;
71665;SDS011;59503;53.486;10.196;2023-05-10T10:49:50;14.13;;;7.82;;
71665;SDS011;59503;53.486;10.196;2023-05-10T10:57:43;11.75;;;8.30;;
71665;SDS011;59503;53.486;10.196;2023-05-10T11:02:59;16.30;;;8.82;;
71665;SDS011;59503;53.486;10.196;2023-05-10T11:08:07;11.93;;;8.00;;
71665;SDS011;59503;53.486;10.196;2023-05-10T11:10:52;11.90;;;8.38;;
71665;SDS011;59503;53.486;10.196;2023-05-10T11:13:39;10.90;;;7.75;;
71665;SDS011;59503;53.486;10.196;2023-05-10T11:21:21;13.52;;;7.85;;
71665;SDS011;59503;53.486;10.196;2023-05-10T11:26:11;8.97;;;7.30;;
71665;SDS011;59503;53.486;10.196;2023-05-10T11:28:47;15.40;;;8.30;;
71665;SDS011;59503;53.486;10.196;2023-05-10T11:31:14;12.05;;;8.15;;
71665;SDS011;59503;53.486;10.196;2023-05-10T11:33:43;12.60;;;8.40;;
71665;SDS011;59503;53.486;10.196;2023-05-10T11:36:10;12.90;;;9.02;;
71665;SDS011;59503;53.486;10.196;2023-05-10T11:38:36;11.88;;;7.85;;
71665;SDS011;59503;53.486;10.196;2023-05-10T11:41:02;11.23;;;8.60;;
71665;SDS011;59503;53.486;10.196;2023-05-10T11:43:27;14.47;;;9.20;;
71665;SDS011;59503;53.486;10.196;2023-05-10T11:45:55;14.63;;;9.25;;
71665;SDS011;59503;53.486;10.196;2023-05-10T11:48:21;14.48;;;9.82;;
71665;SDS011;59503;53.486;10.196;2023-05-10T11:50:48;12.30;;;8.93;;
71665;SDS011;59503;53.486;10.196;2023-05-10T11:53:14;12.88;;;8.45;;
71665;SDS011;59503;53.486;10.196;2023-05-10T11:55:39;15.00;;;9.00;;
71665;SDS011;59503;53.486;10.196;2023-05-10T11:58:05;12.63;;;8.73;;
71665;SDS011;59503;53.486;10.196;2023-05-10T12:00:30;14.23;;;9.17;;
71665;SDS011;59503;53.486;10.196;2023-05-10T12:02:56;13.05;;;9.07;;
71665;SDS011;59503;53.486;10.196;2023-05-10T12:05:22;13.93;;;8.80;;
71665;SDS011;59503;53.486;10.196;2023-05-10T12:07:47;12.90;;;9.07;;
71665;SDS011;59503;53.486;10.196;2023-05-10T12:10:13;16.37;;;10.17;;
71665;SDS011;59503;53.486;10.196;2023-05-10T12:12:45;13.48;;;9.40;;
71665;SDS011;59503;53.486;10.196;2023-05-10T12:15:19;19.10;;;10.50;;
71665;SDS011;59503;53.486;10.196;2023-05-10T12:17:46;14.13;;;10.02;;
71665;SDS011;59503;53.486;10.196;2023-05-10T12:20:16;17.27;;;10.00;;
71665;SDS011;59503;53.486;10.196;2023-05-10T12:22:49;14.38;;;10.10;;
71665;SDS011;59503;53.486;10.196;2023-05-10T12:25:18;11.73;;;8.60;;
71665;SDS011;59503;53.486;10.196;2023-05-10T12:27:48;13.88;;;9.80;;
71665;SDS011;59503;53.486;10.196;2023-05-10T12:30:21;14.13;;;9.70;;
71665;SDS011;59503;53.486;10.196;2023-05-10T12:32:48;13.37;;;9.63;;
71665;SDS011;59503;53.486;10.196;2023-05-10T12:35:13;11.52;;;8.90;;
71665;SDS011;59503;53.486;10.196;2023-05-10T12:37:39;13.10;;;9.10;;
71665;SDS011;59503;53.486;10.196;2023-05-10T12:40:08;11.63;;;8.30;;
71665;SDS011;59503;53.486;10.196;2023-05-10T12:42:36;9.63;;;7.63;;
71665;SDS011;59503;53.486;10.196;2023-05-10T12:45:03;9.85;;;7.47;;
71665;SDS011;59503;53.486;10.196;2023-05-10T12:47:29;12.40;;;8.32;;
71665;SDS011;59503;53.486;10.196;2023-05-10T12:49:55;13.32;;;8.70;;
71665;SDS011;59503;53.486;10.196;2023-05-10T12:52:20;14.27;;;8.47;;
71665;SDS011;59503;53.486;10.196;2023-05-10T12:54:46;11.13;;;7.30;;
71665;SDS011;59503;53.486;10.196;2023-05-10T12:57:12;10.27;;;7.82;;
71665;SDS011;59503;53.486;10.196;2023-05-10T12:59:37;10.67;;;6.17;;
71665;SDS011;59503;53.486;10.196;2023-05-10T13:02:03;9.13;;;6.35;;
71665;SDS011;59503;53.486;10.196;2023-05-10T13:04:28;10.73;;;6.87;;
71665;SDS011;59503;53.486;10.196;2023-05-10T13:06:53;10.23;;;6.57;;
71665;SDS011;59503;53.486;10.196;2023-05-10T13:09:23;7.35;;;5.78;;
71665;SDS011;59503;53.486;10.196;2023-05-10T13:11:48;8.73;;;6.43;;
71665;SDS011;59503;53.486;10.196;2023-05-10T13:14:14;8.53;;;6.57;;
71665;SDS011;59503;53.486;10.196;2023-05-10T13:16:39;8.90;;;5.77;;
71665;SDS011;59503;53.486;10.196;2023-05-10T13:19:05;7.80;;;5.53;;
71665;SDS011;59503;53.486;10.196;2023-05-10T13:21:30;7.83;;;5.27;;
71665;SDS011;59503;53.486;10.196;2023-05-10T13:23:55;7.23;;;5.23;;
71665;SDS011;59503;53.486;10.196;2023-05-10T13:26:20;8.43;;;5.77;;
71665;SDS011;59503;53.486;10.196;2023-05-10T13:28:46;9.90;;;6.27;;
71665;SDS011;59503;53.486;10.196;2023-05-10T13:31:11;10.23;;;6.30;;
71665;SDS011;59503;53.486;10.196;2023-05-10T13:33:36;7.93;;;5.83;;
71665;SDS011;59503;53.486;10.196;2023-05-10T13:36:02;7.17;;;5.20;;
71665;SDS011;59503;53.486;10.196;2023-05-10T13:38:27;8.17;;;5.47;;
71665;SDS011;59503;53.486;10.196;2023-05-10T13:40:52;5.30;;;4.27;;
71665;SDS011;59503;53.486;10.196;2023-05-10T13:43:18;5.60;;;4.57;;
71665;SDS011;59503;53.486;10.196;2023-05-10T13:45:44;7.15;;;4.68;;
71665;SDS011;59503;53.486;10.196;2023-05-10T13:48:09;6.60;;;5.13;;
71665;SDS011;59503;53.486;10.196;2023-05-10T13:50:34;6.87;;;5.43;;
71665;SDS011;59503;53.486;10.196;2023-05-10T13:53:00;7.13;;;5.10;;
71665;SDS011;59503;53.486;10.196;2023-05-10T13:55:25;8.90;;;5.50;;
71665;SDS011;59503;53.486;10.196;2023-05-10T13:57:50;8.07;;;6.07;;
71665;SDS011;59503;53.486;10.196;2023-05-10T14:00:16;9.87;;;6.07;;
71665;SDS011;59503;53.486;10.196;2023-05-10T14:02:42;11.15;;;6.10;;
71665;SDS011;59503;53.486;10.196;2023-05-10T14:05:07;6.50;;;5.00;;
71665;SDS011;59503;53.486;10.196;2023-05-10T14:07:32;7.60;;;4.67;;
71665;SDS011;59503;53.486;10.196;2023-05-10T14:09:58;7.73;;;5.17;;
71665;SDS011;59503;53.486;10.196;2023-05-10T14:12:23;7.40;;;5.15;;
71665;SDS011;59503;53.486;10.196;2023-05-10T14:14:49;6.43;;;5.03;;
71665;SDS011;59503;53.486;10.196;2023-05-10T14:17:14;7.93;;;5.20;;
71665;SDS011;59503;53.486;10.196;2023-05-10T14:19:39;8.33;;;5.63;;
71665;SDS011;59503;53.486;10.196;2023-05-10T14:22:04;7.43;;;5.80;;
71665;SDS011;59503;53.486;10.196;2023-05-10T14:24:30;7.60;;;5.55;;
71665;SDS011;59503;53.486;10.196;2023-05-10T14:26:55;7.67;;;5.57;;
71665;SDS011;59503;53.486;10.196;2023-05-10T14:29:21;6.97;;;5.70;;
71665;SDS011;59503;53.486;10.196;2023-05-10T14:31:46;7.30;;;5.20;;
71665;SDS011;59503;53.486;10.196;2023-05-10T14:34:12;6.17;;;5.20;;
71665;SDS011;59503;53.486;10.196;2023-05-10T14:36:37;10.10;;;6.13;;
71665;SDS011;59503;53.486;10.196;2023-05-10T14:39:03;9.10;;;5.83;;
71665;SDS011;59503;53.486;10.196;2023-05-10T14:41:28;7.28;;;5.80;;
71665;SDS011;59503;53.486;10.196;2023-05-10T14:43:55;7.47;;;5.88;;
71665;SDS011;59503;53.486;10.196;2023-05-10T14:46:20;7.37;;;5.63;;
71665;SDS011;59503;53.486;10.196;2023-05-10T14:48:46;6.97;;;5.57;;
71665;SDS011;59503;53.486;10.196;2023-05-10T14:51:11;7.07;;;5.57;;
71665;SDS011;59503;53.486;10.196;2023-05-10T14:53:37;6.63;;;5.03;;
71665;SDS011;59503;53.486;10.196;2023-05-10T14:56:02;8.03;;;6.50;;
71665;SDS011;59503;53.486;10.196;2023-05-10T14:58:28;7.27;;;5.73;;
71665;SDS011;59503;53.486;10.196;2023-05-10T15:00:53;8.20;;;5.88;;
71665;SDS011;59503;53.486;10.196;2023-05-10T15:03:18;7.33;;;5.53;;
71665;SDS011;59503;53.486;10.196;2023-05-10T15:05:43;7.70;;;6.23;;
71665;SDS011;59503;53.486;10.196;2023-05-10T15:08:09;8.80;;;6.83;;
71665;SDS011;59503;53.486;10.196;2023-05-10T15:10:34;7.07;;;5.90;;
71665;SDS011;59503;53.486;10.196;2023-05-10T15:13:01;7.60;;;6.28;;
71665;SDS011;59503;53.486;10.196;2023-05-10T15:15:28;7.97;;;6.40;;
71665;SDS011;59503;53.486;10.196;2023-05-10T15:17:53;7.40;;;5.50;;